Time;durP1;ratioP1;P1;durP2;ratioP2;P2;SDS_P1;SDS_P2;PMS_P1;PMS_P2;Temp;Humidity;BMP_temperature;BMP_pressure;BME280_temperature;BME280_humidity;BME280_pressure;Samples;Min_cycle;Max_cycle;Signal;HPM_P1;HPM_P2
2022/12/19 00:00:20;;;;;;;0.52;0.52;;;-3.70;99.90;;;;;;5115924;28;20215;-69
2022/12/19 00:02:45;;;;;;;0.52;0.52;;;-3.70;99.90;;;;;;5116017;28;20226;-69
2022/12/19 00:05:12;;;;;;;0.38;0.38;;;-3.50;99.90;;;;;;5116165;28;20223;-69
2022/12/19 00:07:38;;;;;;;0.30;0.30;;;-3.40;99.90;;;;;;5115868;28;20199;-70
2022/12/19 00:10:04;;;;;;;0.30;0.30;;;-3.30;99.90;;;;;;5115834;28;20184;-69
2022/12/19 00:12:31;;;;;;;0.30;0.30;;;-3.20;99.90;;;;;;5115586;28;20223;-69
2022/12/19 00:14:56;;;;;;;0.40;0.40;;;-3.10;99.90;;;;;;5092496;28;20675;-69
2022/12/19 00:17:22;;;;;;;0.60;0.60;;;-3.00;99.90;;;;;;5094994;28;20287;-69
2022/12/19 00:19:48;;;;;;;0.32;0.32;;;-3.00;99.90;;;;;;5095462;28;20196;-69
2022/12/19 00:22:13;;;;;;;0.30;0.30;;;-2.90;99.90;;;;;;5107816;28;20183;-69
2022/12/19 00:24:39;;;;;;;0.30;0.30;;;-2.80;99.90;;;;;;5114865;28;20206;-69
2022/12/19 00:27:05;;;;;;;0.40;0.40;;;-2.60;99.90;;;;;;5115406;28;20727;-69
2022/12/19 00:29:32;;;;;;;0.40;0.40;;;-2.50;99.90;;;;;;5115494;28;20275;-70
2022/12/19 00:31:57;;;;;;;2.33;0.93;;;-2.30;99.90;;;;;;5115556;28;20192;-70
2022/12/19 00:34:23;;;;;;;0.63;0.63;;;-2.30;99.90;;;;;;5115411;28;20188;-69
2022/12/19 00:36:49;;;;;;;0.30;0.30;;;-2.20;99.90;;;;;;5097166;28;20192;-70
2022/12/19 00:39:15;;;;;;;0.30;0.30;;;-2.20;99.90;;;;;;5115323;28;20246;-69
2022/12/19 00:41:41;;;;;;;0.68;0.68;;;-2.20;99.90;;;;;;5115318;28;20199;-69
2022/12/19 00:44:11;;;;;;;0.40;0.40;;;-2.10;99.90;;;;;;5115468;28;20199;-69
2022/12/19 00:46:37;;;;;;;0.30;0.30;;;-2.10;99.90;;;;;;5114602;28;20673;-70
2022/12/19 00:49:04;;;;;;;0.30;0.30;;;-2.10;99.90;;;;;;5115359;28;20195;-70
2022/12/19 00:51:32;;;;;;;0.30;0.30;;;-2.10;99.90;;;;;;5115038;28;20554;-71
2022/12/19 00:53:58;;;;;;;1.65;1.50;;;-2.10;99.90;;;;;;5115057;28;20183;-69
2022/12/19 00:56:29;;;;;;;1.77;1.00;;;-2.00;99.90;;;;;;5114000;28;20199;-70
2022/12/19 00:58:56;;;;;;;0.40;0.40;;;-2.00;99.90;;;;;;5115120;28;20191;-70
2022/12/19 01:01:28;;;;;;;0.30;0.30;;;-2.00;99.90;;;;;;5114210;28;20188;-70
2022/12/19 01:03:57;;;;;;;0.30;0.30;;;-2.00;99.90;;;;;;5114003;28;20214;-69
2022/12/19 01:06:23;;;;;;;1.17;0.95;;;-2.00;99.90;;;;;;5095351;28;20682;-70
2022/12/19 01:08:48;;;;;;;0.68;0.68;;;-2.00;99.90;;;;;;5114083;28;20240;-70
2022/12/19 01:11:14;;;;;;;0.30;0.30;;;-1.90;99.90;;;;;;5109089;28;20702;-70
2022/12/19 01:13:40;;;;;;;0.77;0.77;;;-1.90;99.90;;;;;;5094359;28;20203;-70
2022/12/19 01:16:12;;;;;;;0.40;0.40;;;-1.90;99.90;;;;;;5094346;28;20188;-69
2022/12/19 01:18:38;;;;;;;6.22;1.10;;;-1.80;99.90;;;;;;5107919;28;20278;-70
2022/12/19 01:21:07;;;;;;;2.28;0.85;;;-1.70;99.90;;;;;;5114448;28;20200;-70
2022/12/19 01:23:34;;;;;;;0.30;0.30;;;-1.70;99.90;;;;;;5114183;28;20195;-69
2022/12/19 01:26:00;;;;;;;49.97;1.48;;;-1.60;99.90;;;;;;5095857;28;20672;-70
2022/12/19 01:28:26;;;;;;;0.30;0.30;;;-1.60;99.90;;;;;;5114934;28;20188;-70
2022/12/19 01:30:52;;;;;;;0.30;0.30;;;-1.60;99.90;;;;;;5114263;28;20180;-70
2022/12/19 01:33:19;;;;;;;0.25;0.25;;;-1.50;99.90;;;;;;5114057;28;20217;-70
2022/12/19 01:35:47;;;;;;;0.30;0.30;;;-1.50;99.90;;;;;;5113631;28;20196;-70
2022/12/19 01:38:15;;;;;;;0.30;0.30;;;-1.40;99.90;;;;;;5114047;28;20672;-70
2022/12/19 01:40:49;;;;;;;0.30;0.30;;;-1.40;99.90;;;;;;5095506;28;20200;-70
2022/12/19 01:43:16;;;;;;;0.32;0.32;;;-1.40;99.90;;;;;;5112807;28;20557;-70
2022/12/19 01:45:42;;;;;;;0.90;0.90;;;-1.30;99.90;;;;;;5113322;28;20194;-69
2022/12/19 01:48:17;;;;;;;0.30;0.30;;;-1.30;99.90;;;;;;5114157;28;20207;-70
2022/12/19 01:50:53;;;;;;;0.40;0.40;;;-1.30;99.90;;;;;;5113992;28;20240;-71
2022/12/19 01:53:21;;;;;;;0.30;0.30;;;-1.20;99.90;;;;;;5113659;28;20282;-71
2022/12/19 01:55:47;;;;;;;0.30;0.30;;;-1.20;99.90;;;;;;5093885;28;20618;-71
2022/12/19 01:58:14;;;;;;;0.68;0.68;;;-1.20;99.90;;;;;;5113885;28;20225;-71
2022/12/19 02:00:43;;;;;;;3.53;1.60;;;-1.20;99.90;;;;;;5113353;28;20684;-71
2022/12/19 02:03:21;;;;;;;0.30;0.30;;;-1.20;99.90;;;;;;5113766;28;20184;-70
2022/12/19 02:05:47;;;;;;;0.30;0.30;;;-1.20;99.90;;;;;;5113647;28;20638;-70
2022/12/19 02:08:13;;;;;;;0.98;0.98;;;-1.20;99.90;;;;;;5102516;28;20210;-70
2022/12/19 02:10:39;;;;;;;0.30;0.30;;;-1.10;99.90;;;;;;5092352;28;20231;-71
2022/12/19 02:13:06;;;;;;;0.50;0.50;;;-1.10;99.90;;;;;;5092821;28;20243;-70
2022/12/19 02:15:51;;;;;;;1.08;0.95;;;-1.00;99.90;;;;;;5111995;28;20227;-71
2022/12/19 02:19:01;;;;;;;0.30;0.30;;;-1.00;99.90;;;;;;5112945;28;20286;-71
2022/12/19 02:21:52;;;;;;;0.40;0.40;;;-1.00;99.90;;;;;;5104327;28;20302;-70
2022/12/19 02:24:24;;;;;;;0.85;0.85;;;-1.00;99.90;;;;;;5092458;28;20562;-70
2022/12/19 02:27:14;;;;;;;0.30;0.30;;;-1.00;99.90;;;;;;5092119;28;20299;-70
2022/12/19 02:30:03;;;;;;;0.30;0.30;;;-0.90;99.90;;;;;;5093117;28;20541;-70
2022/12/19 02:33:12;;;;;;;0.30;0.30;;;-0.90;99.90;;;;;;5092808;28;20651;-70
2022/12/19 02:35:51;;;;;;;2.78;0.85;;;-0.80;99.90;;;;;;5086808;28;20663;-70
2022/12/19 02:38:47;;;;;;;2.15;1.23;;;-0.70;99.90;;;;;;5086287;28;20247;-70
2022/12/19 02:41:45;;;;;;;0.40;0.40;;;-0.60;99.90;;;;;;5113404;28;20559;-70
2022/12/19 02:44:18;;;;;;;0.30;0.30;;;-0.50;99.90;;;;;;5106702;28;20207;-71
2022/12/19 02:46:46;;;;;;;1.45;0.85;;;-0.50;99.90;;;;;;5112923;28;20203;-69
2022/12/19 02:49:13;;;;;;;0.30;0.30;;;-0.60;99.90;;;;;;5113313;28;20188;-70
2022/12/19 02:51:39;;;;;;;0.20;0.20;;;-0.60;99.90;;;;;;5113079;28;20211;-71
2022/12/19 02:54:05;;;;;;;0.35;0.35;;;-0.70;99.90;;;;;;5113430;28;20188;-70
2022/12/19 02:56:40;;;;;;;0.20;0.20;;;-0.70;99.90;;;;;;5113517;28;20657;-70
2022/12/19 02:59:37;;;;;;;0.30;0.30;;;-0.80;99.90;;;;;;5095252;28;20251;-72
2022/12/19 03:02:36;;;;;;;0.30;0.30;;;-0.90;99.90;;;;;;5112815;28;20192;-70
2022/12/19 03:05:14;;;;;;;0.70;0.70;;;-0.90;99.90;;;;;;5112698;28;20340;-70
2022/12/19 03:07:56;;;;;;;0.40;0.40;;;-1.00;99.90;;;;;;5093939;28;20253;-70
2022/12/19 03:10:41;;;;;;;0.30;0.30;;;-1.00;99.90;;;;;;5112771;28;20271;-70
2022/12/19 03:13:29;;;;;;;0.73;0.73;;;-1.10;99.90;;;;;;5112412;28;20223;-71
2022/12/19 03:15:56;;;;;;;0.30;0.30;;;-1.10;99.90;;;;;;5113008;28;20213;-70
2022/12/19 03:18:22;;;;;;;0.20;0.20;;;-1.10;99.90;;;;;;5113025;28;20271;-70
2022/12/19 03:20:53;;;;;;;2.15;0.77;;;-1.00;99.90;;;;;;5115836;28;20233;-70
2022/12/19 03:23:20;;;;;;;0.30;0.30;;;-1.00;99.90;;;;;;5116625;28;20196;-70
2022/12/19 03:25:49;;;;;;;0.20;0.20;;;-0.90;99.90;;;;;;5116033;28;20248;-70
2022/12/19 03:28:26;;;;;;;0.28;0.28;;;-0.80;99.90;;;;;;5116098;28;20196;-71
2022/12/19 03:30:54;;;;;;;0.47;0.47;;;-0.70;99.90;;;;;;5096091;28;20249;-70
2022/12/19 03:33:22;;;;;;;0.90;0.65;;;-0.70;99.90;;;;;;5097474;28;20527;-70
2022/12/19 03:35:49;;;;;;;1.95;0.95;;;-0.60;99.90;;;;;;5115513;28;20279;-71
2022/12/19 03:38:18;;;;;;;0.32;0.32;;;-0.60;99.90;;;;;;5116782;28;20202;-71
2022/12/19 03:40:45;;;;;;;4.68;2.28;;;-0.60;99.90;;;;;;5116691;28;20628;-71
2022/12/19 03:43:13;;;;;;;0.32;0.32;;;-0.50;99.90;;;;;;5116400;28;20218;-70
2022/12/19 03:46:01;;;;;;;1.75;1.05;;;-0.50;99.90;;;;;;5116338;28;20199;-71
2022/12/19 03:48:30;;;;;;;0.30;0.30;;;-0.50;99.90;;;;;;5115709;28;20199;-71
2022/12/19 03:51:04;;;;;;;1.30;0.90;;;-0.50;99.90;;;;;;5116393;28;20180;-70
2022/12/19 03:53:41;;;;;;;0.30;0.30;;;-0.50;99.90;;;;;;5116105;28;20194;-70
2022/12/19 03:56:39;;;;;;;0.35;0.35;;;-0.50;99.90;;;;;;5116134;28;20191;-71
2022/12/19 03:59:45;;;;;;;0.52;0.52;;;-0.60;99.90;;;;;;5116049;28;20677;-71
2022/12/19 04:02:13;;;;;;;1.13;1.02;;;-0.60;99.90;;;;;;5048377;28;20209;-71
2022/12/19 04:04:45;;;;;;;0.60;0.60;;;-0.50;99.90;;;;;;5035977;28;20237;-70
2022/12/19 04:07:13;;;;;;;0.32;0.32;;;-0.50;99.90;;;;;;5052874;28;20292;-71
2022/12/19 04:09:42;;;;;;;0.30;0.30;;;-0.50;99.90;;;;;;5036112;28;20212;-71
2022/12/19 04:12:14;;;;;;;0.28;0.28;;;-0.50;99.90;;;;;;5052993;28;20229;-71
2022/12/19 04:14:40;;;;;;;0.20;0.20;;;-0.60;99.90;;;;;;5052898;28;20256;-70
2022/12/19 04:17:09;;;;;;;0.50;0.50;;;-0.60;99.90;;;;;;5053065;28;20736;-72
2022/12/19 04:19:42;;;;;;;2.58;1.73;;;-0.70;99.90;;;;;;5052982;28;20197;-73
2022/12/19 04:22:43;;;;;;;0.38;0.38;;;-0.70;99.90;;;;;;5052442;28;20581;-71
2022/12/19 04:25:14;;;;;;;0.77;0.73;;;-0.70;99.90;;;;;;5052419;28;20212;-71
2022/12/19 04:27:46;;;;;;;0.98;0.98;;;-0.60;99.90;;;;;;5035865;28;20225;-71
2022/12/19 04:30:14;;;;;;;0.93;0.85;;;-0.60;99.90;;;;;;5052047;28;20261;-72
2022/12/19 04:32:41;;;;;;;0.90;0.50;;;-0.70;99.90;;;;;;5052314;28;20304;-71
2022/12/19 04:35:07;;;;;;;0.82;0.82;;;-0.70;99.90;;;;;;5054152;28;20296;-72
2022/12/19 04:37:33;;;;;;;0.30;0.30;;;-0.70;99.90;;;;;;5074706;28;20193;-72
2022/12/19 04:39:59;;;;;;;0.60;0.60;;;-0.80;99.90;;;;;;5074411;28;20243;-72
2022/12/19 04:42:24;;;;;;;0.57;0.57;;;-0.80;99.90;;;;;;5074250;28;20682;-71
2022/12/19 04:44:50;;;;;;;0.30;0.30;;;-0.90;99.90;;;;;;5074835;28;20268;-71
2022/12/19 04:47:16;;;;;;;0.30;0.30;;;-0.90;99.90;;;;;;5074385;28;20611;-71
2022/12/19 04:49:42;;;;;;;0.40;0.40;;;-1.00;99.90;;;;;;5085621;28;20555;-71
2022/12/19 04:52:07;;;;;;;0.65;0.65;;;-1.00;99.90;;;;;;5092438;28;20561;-71
2022/12/19 04:54:33;;;;;;;1.00;0.95;;;-1.00;99.90;;;;;;5094037;28;20185;-72
2022/12/19 04:56:59;;;;;;;0.28;0.28;;;-1.00;99.90;;;;;;5094364;28;20200;-70
2022/12/19 04:59:25;;;;;;;0.77;0.77;;;-1.00;99.90;;;;;;5093786;28;20234;-70
2022/12/19 05:01:50;;;;;;;0.57;0.57;;;-1.00;99.90;;;;;;5094627;28;20194;-71
2022/12/19 05:04:16;;;;;;;1.13;1.10;;;-1.10;99.90;;;;;;5094511;28;20330;-71
2022/12/19 05:06:42;;;;;;;0.35;0.35;;;-1.10;99.90;;;;;;5094335;28;20204;-71
2022/12/19 05:09:09;;;;;;;2.67;0.75;;;-1.10;99.90;;;;;;5094739;28;20192;-71
2022/12/19 05:11:35;;;;;;;0.30;0.30;;;-1.10;99.90;;;;;;5101186;28;20276;-71
2022/12/19 05:14:01;;;;;;;0.52;0.52;;;-1.10;99.90;;;;;;5114841;28;20202;-71
2022/12/19 05:16:27;;;;;;;0.30;0.30;;;-1.10;99.90;;;;;;5114592;28;20191;-71
2022/12/19 05:18:53;;;;;;;0.45;0.45;;;-1.00;99.90;;;;;;5096326;28;20238;-71
2022/12/19 05:21:20;;;;;;;0.20;0.20;;;-1.00;99.90;;;;;;5114523;28;20685;-71
2022/12/19 05:23:45;;;;;;;0.35;0.35;;;-0.90;99.90;;;;;;5114353;28;20638;-71
2022/12/19 05:26:12;;;;;;;0.40;0.40;;;-0.90;99.90;;;;;;5095630;28;20202;-71
2022/12/19 05:28:38;;;;;;;0.93;0.40;;;-1.00;99.90;;;;;;5096264;28;20661;-72
2022/12/19 05:31:09;;;;;;;2.30;1.33;;;-1.00;99.90;;;;;;5114274;28;20219;-71
2022/12/19 05:33:36;;;;;;;0.90;0.88;;;-1.00;99.90;;;;;;5114027;28;20174;-71
2022/12/19 05:36:02;;;;;;;0.20;0.20;;;-1.10;99.90;;;;;;5114141;28;20620;-71
2022/12/19 05:38:28;;;;;;;2.40;1.05;;;-1.10;99.90;;;;;;5095414;28;20203;-71
2022/12/19 05:40:54;;;;;;;1.17;0.88;;;-1.00;99.90;;;;;;5112743;28;20661;-71
2022/12/19 05:43:20;;;;;;;0.30;0.30;;;-1.00;99.90;;;;;;5113401;28;20183;-72
2022/12/19 05:45:46;;;;;;;0.40;0.40;;;-1.00;99.90;;;;;;5107173;28;20223;-72
2022/12/19 05:48:13;;;;;;;0.40;0.40;;;-1.00;99.90;;;;;;5093855;28;20278;-71
2022/12/19 05:50:39;;;;;;;0.30;0.30;;;-1.10;99.90;;;;;;5093372;28;20195;-70
2022/12/19 05:53:04;;;;;;;0.30;0.30;;;-1.10;99.90;;;;;;5103855;28;20203;-70
2022/12/19 05:55:30;;;;;;;1.27;1.10;;;-1.10;99.90;;;;;;5113957;28;20699;-70
2022/12/19 05:57:56;;;;;;;0.40;0.40;;;-1.10;99.90;;;;;;5114035;28;20191;-71
2022/12/19 06:00:22;;;;;;;0.60;0.60;;;-1.10;99.90;;;;;;5113806;28;20196;-71
2022/12/19 06:02:47;;;;;;;0.30;0.30;;;-1.20;99.90;;;;;;5114079;28;20191;-71
2022/12/19 06:05:13;;;;;;;0.60;0.60;;;-1.20;99.90;;;;;;5113592;28;20276;-71
2022/12/19 06:07:39;;;;;;;0.50;0.50;;;-1.20;99.90;;;;;;5113439;28;20214;-70
2022/12/19 06:10:06;;;;;;;0.50;0.50;;;-1.30;99.90;;;;;;5095520;28;20658;-71
2022/12/19 06:12:32;;;;;;;1.40;1.10;;;-1.20;99.90;;;;;;5113911;28;20227;-71
2022/12/19 06:14:57;;;;;;;0.88;0.82;;;-1.30;99.90;;;;;;5113492;28;20194;-70
2022/12/19 06:17:23;;;;;;;1.55;1.15;;;-1.30;99.90;;;;;;5112890;28;20723;-71
2022/12/19 06:19:49;;;;;;;1.60;1.50;;;-1.30;99.90;;;;;;5113765;28;20203;-71
2022/12/19 06:22:15;;;;;;;0.30;0.30;;;-1.30;99.90;;;;;;5113447;28;20195;-71
2022/12/19 06:24:40;;;;;;;0.40;0.40;;;-1.40;99.90;;;;;;5113499;28;20274;-70
2022/12/19 06:27:06;;;;;;;0.47;0.47;;;-1.30;99.90;;;;;;5113662;28;20732;-71
2022/12/19 06:29:32;;;;;;;0.50;0.50;;;-1.30;99.90;;;;;;5113521;28;20184;-71
2022/12/19 06:31:58;;;;;;;1.30;0.95;;;-1.30;99.90;;;;;;5113350;28;20211;-70
2022/12/19 06:34:23;;;;;;;0.60;0.60;;;-1.30;99.90;;;;;;5113383;28;20603;-71
2022/12/19 06:36:52;;;;;;;0.25;0.25;;;-1.30;99.90;;;;;;5113535;28;20195;-70
2022/12/19 06:39:18;;;;;;;0.50;0.50;;;-1.20;99.90;;;;;;5113499;28;20198;-70
2022/12/19 06:44:30;;;;;;;0.68;0.68;;;-1.10;99.90;;;;;;5113597;28;20563;-69
2022/12/19 06:46:55;;;;;;;0.30;0.30;;;-1.10;99.90;;;;;;5113349;28;20203;-70
2022/12/19 06:49:21;;;;;;;0.32;0.32;;;-1.10;99.90;;;;;;5102679;28;20704;-70
2022/12/19 06:51:47;;;;;;;0.40;0.40;;;-1.10;99.90;;;;;;5093115;28;20188;-71
2022/12/19 06:54:13;;;;;;;0.35;0.35;;;-1.10;99.90;;;;;;5093388;28;20192;-72
2022/12/19 06:56:41;;;;;;;0.40;0.40;;;-1.10;99.90;;;;;;5115408;28;20274;-72
2022/12/19 06:59:13;;;;;;;0.38;0.38;;;-1.10;99.90;;;;;;5117362;28;20286;-69
2022/12/19 07:02:00;;;;;;;0.70;0.70;;;-1.10;99.90;;;;;;5116705;28;20255;-69
2022/12/19 07:04:32;;;;;;;1.13;1.02;;;-1.00;99.90;;;;;;5098893;28;20234;-70
2022/12/19 07:06:59;;;;;;;0.35;0.35;;;-1.00;99.90;;;;;;5117069;28;20294;-69
2022/12/19 07:09:27;;;;;;;1.45;1.20;;;-1.00;99.90;;;;;;5098137;28;20192;-70
2022/12/19 07:11:53;;;;;;;0.30;0.30;;;-0.90;99.90;;;;;;5094922;28;20686;-70
2022/12/19 07:14:18;;;;;;;0.40;0.40;;;-0.90;99.90;;;;;;5096612;28;20283;-70
2022/12/19 07:16:45;;;;;;;0.30;0.30;;;-1.00;99.90;;;;;;5096663;28;20237;-70
2022/12/19 07:19:11;;;;;;;0.52;0.52;;;-1.00;99.90;;;;;;5095498;28;20196;-70
2022/12/19 07:21:37;;;;;;;0.40;0.40;;;-1.00;99.90;;;;;;5096336;28;20192;-70
2022/12/19 07:24:04;;;;;;;0.30;0.30;;;-1.00;99.90;;;;;;5096761;28;20647;-70
2022/12/19 07:26:30;;;;;;;0.30;0.30;;;-1.00;99.90;;;;;;5096298;28;20200;-70
2022/12/19 07:28:57;;;;;;;0.55;0.55;;;-1.00;99.90;;;;;;5096470;28;20567;-70
2022/12/19 07:31:23;;;;;;;0.35;0.35;;;-1.00;99.90;;;;;;5096317;28;20188;-70
2022/12/19 07:33:48;;;;;;;0.90;0.85;;;-1.10;99.90;;;;;;5095113;28;20242;-70
2022/12/19 07:36:14;;;;;;;0.35;0.35;;;-1.10;99.90;;;;;;5096423;28;20222;-70
2022/12/19 07:38:40;;;;;;;1.17;1.08;;;-1.10;99.90;;;;;;5096214;28;20219;-71
2022/12/19 07:41:05;;;;;;;0.63;0.63;;;-1.20;99.90;;;;;;5095100;28;20188;-71
2022/12/19 07:43:31;;;;;;;0.30;0.30;;;-1.20;99.90;;;;;;5095743;28;20192;-71
2022/12/19 07:45:57;;;;;;;6.22;1.65;;;-1.20;99.90;;;;;;5089169;28;20204;-71
2022/12/19 07:48:22;;;;;;;1.08;0.98;;;-1.20;99.90;;;;;;5095174;28;20211;-71
2022/12/19 07:50:48;;;;;;;0.30;0.30;;;-1.30;99.90;;;;;;5096046;28;20673;-71
2022/12/19 07:53:15;;;;;;;1.15;1.05;;;-1.30;99.90;;;;;;5096037;28;20224;-71
2022/12/19 07:55:40;;;;;;;0.35;0.35;;;-1.30;99.90;;;;;;5095976;28;20199;-71
2022/12/19 07:58:09;;;;;;;0.65;0.65;;;-1.30;99.90;;;;;;5094525;28;20196;-70
2022/12/19 08:00:35;;;;;;;0.30;0.30;;;-1.30;99.90;;;;;;5090127;28;20211;-70
2022/12/19 08:03:01;;;;;;;0.38;0.38;;;-1.30;99.90;;;;;;5094079;28;20667;-71
2022/12/19 08:05:27;;;;;;;0.30;0.30;;;-1.30;99.90;;;;;;5095087;28;20207;-71
2022/12/19 08:07:53;;;;;;;0.30;0.30;;;-1.30;99.90;;;;;;5095762;28;20210;-70
2022/12/19 08:10:21;;;;;;;0.52;0.52;;;-1.30;99.90;;;;;;5095494;28;20275;-72
2022/12/19 08:12:47;;;;;;;3.90;3.05;;;-1.30;99.90;;;;;;5111251;28;20235;-71
2022/12/19 08:15:13;;;;;;;0.30;0.30;;;-1.40;99.90;;;;;;5116013;28;20581;-71
2022/12/19 08:17:39;;;;;;;0.25;0.25;;;-1.40;99.90;;;;;;5108351;28;20264;-71
2022/12/19 08:20:10;;;;;;;0.43;0.43;;;-1.30;99.90;;;;;;5097894;28;20195;-71
2022/12/19 08:22:36;;;;;;;0.45;0.45;;;-1.40;99.90;;;;;;5115486;28;20205;-72
2022/12/19 08:25:01;;;;;;;0.60;0.60;;;-1.40;99.90;;;;;;5115543;28;20187;-71
2022/12/19 08:27:27;;;;;;;0.30;0.30;;;-1.40;99.90;;;;;;5115055;28;20215;-71
2022/12/19 08:29:53;;;;;;;0.30;0.30;;;-1.30;99.90;;;;;;5097158;28;20646;-71
2022/12/19 08:32:19;;;;;;;0.20;0.20;;;-1.30;99.90;;;;;;5090342;28;20204;-72
2022/12/19 08:34:45;;;;;;;0.30;0.30;;;-1.30;99.90;;;;;;5115326;28;20230;-71
2022/12/19 08:37:10;;;;;;;0.20;0.20;;;-1.30;99.90;;;;;;5115668;28;20187;-71
2022/12/19 08:39:36;;;;;;;0.30;0.30;;;-1.30;99.90;;;;;;5097129;28;20232;-71
2022/12/19 08:42:02;;;;;;;0.30;0.30;;;-1.30;99.90;;;;;;5097276;28;20207;-70
2022/12/19 08:44:28;;;;;;;0.30;0.30;;;-1.30;99.90;;;;;;5096939;28;20202;-72
2022/12/19 08:46:53;;;;;;;0.30;0.30;;;-1.30;99.90;;;;;;5109701;28;20207;-71
2022/12/19 08:49:19;;;;;;;0.30;0.30;;;-1.30;99.90;;;;;;5113881;28;20661;-71
2022/12/19 08:51:45;;;;;;;0.50;0.50;;;-1.30;99.90;;;;;;5115069;28;20187;-70
2022/12/19 08:54:11;;;;;;;0.47;0.47;;;-1.20;99.90;;;;;;5097014;28;20196;-70
2022/12/19 08:56:38;;;;;;;0.50;0.50;;;-1.20;99.90;;;;;;5115036;28;20279;-70
2022/12/19 08:59:04;;;;;;;4.68;1.00;;;-1.20;99.90;;;;;;5115265;28;20551;-71
2022/12/19 09:01:30;;;;;;;0.30;0.30;;;-1.20;99.90;;;;;;5090446;28;20294;-70
2022/12/19 09:03:58;;;;;;;0.30;0.30;;;-1.10;99.90;;;;;;5113144;28;20218;-71
2022/12/19 09:06:24;;;;;;;0.30;0.30;;;-1.10;99.90;;;;;;5114066;28;20198;-71
2022/12/19 09:08:50;;;;;;;0.50;0.50;;;-1.10;99.90;;;;;;5115042;28;20188;-71
2022/12/19 09:11:18;;;;;;;0.38;0.38;;;-1.10;99.90;;;;;;5114868;28;20250;-71
2022/12/19 09:13:46;;;;;;;0.30;0.30;;;-1.00;99.90;;;;;;5114819;28;20187;-71
2022/12/19 09:16:19;;;;;;;0.20;0.20;;;-0.90;99.90;;;;;;5111052;28;20256;-71
2022/12/19 09:18:47;;;;;;;0.73;0.73;;;-0.90;99.90;;;;;;5110338;28;20576;-71
2022/12/19 09:21:14;;;;;;;0.30;0.30;;;-0.80;99.90;;;;;;5114819;28;20619;-72
2022/12/19 09:23:41;;;;;;;0.20;0.20;;;-0.80;99.90;;;;;;5114463;28;20772;-71
2022/12/19 09:26:12;;;;;;;0.22;0.22;;;-0.80;99.90;;;;;;5096378;28;20676;-71
2022/12/19 09:28:39;;;;;;;0.40;0.40;;;-0.80;99.90;;;;;;5114514;28;20685;-71
2022/12/19 09:31:09;;;;;;;0.30;0.30;;;-0.70;99.90;;;;;;5093827;28;20195;-70
2022/12/19 09:33:36;;;;;;;0.30;0.30;;;-0.70;99.90;;;;;;5109081;28;20551;-71
2022/12/19 09:36:03;;;;;;;0.60;0.47;;;-0.60;99.90;;;;;;5113147;28;20698;-71
2022/12/19 09:38:30;;;;;;;1.10;1.00;;;-0.60;99.90;;;;;;5114131;28;20553;-72
2022/12/19 09:41:20;;;;;;;1.00;0.90;;;-0.60;99.90;;;;;;5114348;28;20650;-70
2022/12/19 09:44:06;;;;;;;0.30;0.30;;;-0.50;99.90;;;;;;5114306;28;20558;-71
2022/12/19 09:46:41;;;;;;;0.30;0.30;;;-0.50;99.90;;;;;;5110392;28;20215;-71
2022/12/19 09:49:13;;;;;;;0.30;0.30;;;-0.50;99.90;;;;;;5108090;28;20195;-72
2022/12/19 09:52:09;;;;;;;0.40;0.40;;;-0.50;99.90;;;;;;5113730;28;20234;-71
2022/12/19 09:54:53;;;;;;;0.20;0.20;;;-0.40;99.90;;;;;;5112399;28;20208;-71
2022/12/19 09:57:48;;;;;;;0.20;0.20;;;-0.40;99.90;;;;;;5114073;28;20282;-72
2022/12/19 10:00:18;;;;;;;0.30;0.30;;;-0.30;99.90;;;;;;5095722;28;20199;-71
2022/12/19 10:03:13;;;;;;;0.60;0.60;;;-0.30;99.90;;;;;;5106136;28;20207;-71
2022/12/19 10:06:05;;;;;;;0.30;0.30;;;-0.20;99.90;;;;;;5102862;28;20709;-70
2022/12/19 10:08:37;;;;;;;1.23;0.98;;;-0.20;99.90;;;;;;5113665;28;20191;-71
2022/12/19 10:11:11;;;;;;;0.30;0.30;;;-0.20;99.90;;;;;;5113815;28;20694;-70
2022/12/19 10:14:01;;;;;;;0.70;0.70;;;-0.10;99.90;;;;;;5113497;28;20233;-71
2022/12/19 10:16:50;;;;;;;0.20;0.20;;;-0.10;99.90;;;;;;5093085;28;20286;-72
2022/12/19 10:19:43;;;;;;;0.20;0.20;;;-0.10;99.90;;;;;;5108245;28;20206;-71
2022/12/19 10:22:33;;;;;;;0.45;0.45;;;0.00;99.90;;;;;;5111918;28;20229;-70
2022/12/19 10:25:08;;;;;;;0.30;0.30;;;0.00;99.90;;;;;;5113763;28;20572;-70
2022/12/19 10:27:53;;;;;;;0.30;0.30;;;0.10;99.90;;;;;;5113504;28;20206;-70
2022/12/19 10:30:21;;;;;;;0.28;0.28;;;0.10;99.90;;;;;;5120212;28;20192;-70
2022/12/19 10:32:53;;;;;;;0.30;0.30;;;0.10;99.90;;;;;;5116466;28;20210;-70
2022/12/19 10:35:21;;;;;;;0.20;0.20;;;0.20;99.90;;;;;;5104043;28;20203;-70
2022/12/19 10:37:54;;;;;;;0.30;0.30;;;0.20;99.90;;;;;;5119980;27;20243;-70
2022/12/19 10:40:28;;;;;;;0.30;0.30;;;0.20;99.90;;;;;;5102020;28;20290;-71
2022/12/19 10:43:21;;;;;;;0.30;0.30;;;0.20;99.90;;;;;;5120358;28;20556;-69
2022/12/19 10:45:56;;;;;;;0.35;0.35;;;0.30;99.90;;;;;;5120493;28;20194;-70
2022/12/19 10:48:23;;;;;;;0.50;0.50;;;0.20;99.90;;;;;;5115133;28;20600;-71
2022/12/19 10:50:49;;;;;;;0.45;0.45;;;0.20;99.90;;;;;;5118844;28;20278;-71
2022/12/19 10:53:15;;;;;;;0.20;0.20;;;0.20;99.90;;;;;;5119319;28;20720;-71
2022/12/19 10:55:51;;;;;;;0.30;0.30;;;0.20;99.90;;;;;;5120148;28;20195;-70
2022/12/19 10:58:35;;;;;;;0.93;0.90;;;0.20;99.90;;;;;;5120810;28;20544;-71
2022/12/19 11:01:24;;;;;;;0.30;0.30;;;0.20;99.90;;;;;;5120270;28;20187;-70
2022/12/19 11:04:28;;;;;;;0.30;0.30;;;0.20;99.90;;;;;;5115610;28;20195;-70
2022/12/19 11:07:19;;;;;;;0.20;0.20;;;0.20;99.90;;;;;;5104274;28;20270;-70
2022/12/19 11:09:45;;;;;;;0.30;0.30;;;0.20;99.90;;;;;;5120242;28;20228;-71
2022/12/19 11:12:17;;;;;;;1.75;0.82;;;0.20;99.90;;;;;;5119892;28;20306;-71
2022/12/19 11:14:51;;;;;;;0.63;0.63;;;0.10;99.90;;;;;;5101652;28;20207;-70
2022/12/19 11:17:35;;;;;;;0.50;0.50;;;0.20;99.90;;;;;;5099284;28;20203;-70
2022/12/19 11:20:22;;;;;;;0.65;0.65;;;0.10;99.90;;;;;;5099069;28;20569;-71
2022/12/19 11:22:59;;;;;;;0.22;0.22;;;0.00;99.90;;;;;;5101883;28;20199;-70
2022/12/19 11:25:42;;;;;;;0.35;0.35;;;0.00;99.90;;;;;;5101679;28;20557;-71
2022/12/19 11:28:25;;;;;;;0.30;0.30;;;-0.10;99.90;;;;;;5120094;28;20199;-71
2022/12/19 11:31:02;;;;;;;0.40;0.40;;;-0.10;99.90;;;;;;5119800;28;20187;-70
2022/12/19 11:33:29;;;;;;;0.30;0.30;;;-0.20;99.90;;;;;;5098198;28;20223;-72
2022/12/19 11:36:00;;;;;;;0.35;0.35;;;-0.20;99.90;;;;;;5116452;28;20191;-70
2022/12/19 11:38:52;;;;;;;0.43;0.43;;;-0.20;99.90;;;;;;5117457;28;20214;-70
2022/12/19 11:41:27;;;;;;;0.50;0.50;;;-0.20;99.90;;;;;;5107536;28;20207;-70
2022/12/19 11:44:02;;;;;;;0.40;0.40;;;-0.30;99.90;;;;;;5115946;28;20190;-70
2022/12/19 11:46:44;;;;;;;0.30;0.30;;;-0.20;99.90;;;;;;5116239;28;20205;-70
2022/12/19 11:49:30;;;;;;;0.52;0.52;;;-0.30;99.90;;;;;;5112572;28;20540;-71
2022/12/19 11:52:12;;;;;;;0.50;0.50;;;-0.30;99.90;;;;;;5110290;28;20274;-70
2022/12/19 11:54:59;;;;;;;0.20;0.20;;;-0.30;99.90;;;;;;5100304;28;20203;-69
2022/12/19 11:57:26;;;;;;;0.30;0.30;;;-0.30;99.90;;;;;;5116271;28;20606;-69
2022/12/19 11:59:52;;;;;;;0.30;0.30;;;-0.30;99.90;;;;;;5116236;28;20561;-69
2022/12/19 12:02:37;;;;;;;0.40;0.35;;;-0.30;99.90;;;;;;5115587;28;20184;-71
2022/12/19 12:05:39;;;;;;;2.95;1.95;;;-0.30;99.90;;;;;;5092518;28;20195;-68
2022/12/19 12:08:33;;;;;;;2.83;1.30;;;-0.30;99.90;;;;;;5095765;28;20211;-70
2022/12/19 12:11:02;;;;;;;0.30;0.30;;;-0.30;99.90;;;;;;5094977;28;20199;-70
2022/12/19 12:14:06;;;;;;;1.48;1.38;;;-0.30;99.90;;;;;;5076669;28;20204;-69
2022/12/19 12:17:04;;;;;;;0.25;0.25;;;-0.30;99.90;;;;;;5088556;28;20211;-70
2022/12/19 12:19:41;;;;;;;0.55;0.55;;;-0.30;99.90;;;;;;5105668;28;20223;-71
2022/12/19 12:23:03;;;;;;;0.30;0.30;;;-0.30;99.90;;;;;;5103600;28;20266;-70
2022/12/19 12:26:06;;;;;;;0.40;0.40;;;-0.30;99.90;;;;;;5070527;28;20215;-71
2022/12/19 12:29:09;;;;;;;0.40;0.40;;;-0.30;99.90;;;;;;5091448;28;20569;-70
2022/12/19 12:31:59;;;;;;;0.40;0.40;;;-0.30;99.90;;;;;;5106202;28;20226;-71
2022/12/19 12:34:28;;;;;;;0.20;0.20;;;-0.30;99.90;;;;;;5114402;28;20271;-70
2022/12/19 12:37:23;;;;;;;0.20;0.20;;;-0.30;99.90;;;;;;5114612;28;20674;-69
2022/12/19 12:39:56;;;;;;;0.35;0.35;;;-0.30;99.90;;;;;;5042492;28;20317;-70
2022/12/19 12:42:25;;;;;;;0.30;0.30;;;-0.40;99.90;;;;;;5116426;27;20194;-70
2022/12/19 12:44:54;;;;;;;0.47;0.47;;;-0.40;99.90;;;;;;5136041;27;20672;-70
2022/12/19 12:47:26;;;;;;;0.30;0.30;;;-0.40;99.90;;;;;;5107577;27;20218;-72
2022/12/19 12:50:07;;;;;;;1.27;0.70;;;-0.40;99.90;;;;;;5110280;27;20199;-70
2022/12/19 12:52:43;;;;;;;0.30;0.30;;;-0.40;99.90;;;;;;5089539;27;20230;-71
2022/12/19 12:55:31;;;;;;;0.20;0.20;;;-0.40;99.90;;;;;;5096003;27;20552;-70
2022/12/19 12:57:57;;;;;;;0.55;0.55;;;-0.40;99.90;;;;;;5115980;27;20223;-70
2022/12/19 13:00:31;;;;;;;0.20;0.20;;;-0.40;99.90;;;;;;5109396;28;20204;-70
2022/12/19 13:03:04;;;;;;;0.55;0.55;;;-0.40;99.90;;;;;;5099248;28;20685;-69
2022/12/19 13:05:33;;;;;;;6.32;1.98;;;-0.40;99.90;;;;;;5094647;28;20625;-70
2022/12/19 13:07:59;;;;;;;0.22;0.22;;;-0.40;99.90;;;;;;5092646;28;20630;-70
2022/12/19 13:10:30;;;;;;;0.63;0.63;;;-0.40;99.90;;;;;;5114678;28;20252;-72
2022/12/19 13:13:08;;;;;;;2.17;1.25;;;-0.40;99.90;;;;;;5114133;28;20325;-69
2022/12/19 13:15:37;;;;;;;0.28;0.28;;;-0.40;99.90;;;;;;5114609;28;20270;-71